createdAt,value
2023-03-16T00:01:15.096Z,40.17
2023-03-16T00:03:42.703Z,39.35
2023-03-16T00:06:10.441Z,39.34
2023-03-16T00:08:39.128Z,39.62
2023-03-16T00:11:07.448Z,38.72
2023-03-16T00:13:35.074Z,38.44
2023-03-16T00:16:05.103Z,39.56
2023-03-16T00:18:39.136Z,40.31
2023-03-16T00:21:07.197Z,39.69
2023-03-16T00:23:36.029Z,38.80
2023-03-16T00:26:04.603Z,39.84
2023-03-16T00:28:35.126Z,40.46
2023-03-16T00:31:04.385Z,42.97
2023-03-16T00:33:34.711Z,40.97
2023-03-16T00:36:05.018Z,40.71
2023-03-16T00:38:34.583Z,40.96
2023-03-16T00:41:03.892Z,43.05
2023-03-16T00:43:31.790Z,41.22
2023-03-16T00:46:01.256Z,41.18
2023-03-16T00:48:34.424Z,40.51
2023-03-16T00:51:02.906Z,40.73
2023-03-16T00:53:31.202Z,41.03
2023-03-16T00:55:59.086Z,39.87
2023-03-16T00:58:26.727Z,39.98
2023-03-16T01:00:55.241Z,38.72
2023-03-16T01:03:22.880Z,39.14
2023-03-16T01:05:51.968Z,38.23
2023-03-16T01:08:19.577Z,38.43
2023-03-16T01:10:47.198Z,38.85
2023-03-16T01:13:14.824Z,39.84
2023-03-16T01:15:42.870Z,39.37
2023-03-16T01:18:13.322Z,39.88
2023-03-16T01:20:43.381Z,39.69
2023-03-16T01:23:12.389Z,41.17
2023-03-16T01:25:39.999Z,40.42
2023-03-16T01:28:07.651Z,40.73
2023-03-16T01:30:35.788Z,40.49
2023-03-16T01:33:03.966Z,38.98
2023-03-16T01:35:31.889Z,39.29
2023-03-16T01:37:59.597Z,38.73
2023-03-16T01:40:29.712Z,38.60
2023-03-16T01:43:01.129Z,38.30
2023-03-16T01:45:50.037Z,36.79
2023-03-16T01:48:17.736Z,38.00
2023-03-16T01:50:45.386Z,37.73
2023-03-16T01:53:12.999Z,37.26
2023-03-16T01:55:42.102Z,37.00
2023-03-16T01:58:09.674Z,37.71
2023-03-16T02:00:37.489Z,37.46
2023-03-16T02:03:19.395Z,37.55
2023-03-16T02:05:52.630Z,38.19
2023-03-16T02:08:22.864Z,37.86
2023-03-16T02:10:54.531Z,37.41
2023-03-16T02:13:23.443Z,37.02
2023-03-16T02:15:52.053Z,36.88
2023-03-16T02:18:20.022Z,36.95
2023-03-16T02:20:48.918Z,37.02
2023-03-16T02:23:19.343Z,37.22
2023-03-16T02:25:51.645Z,37.24
2023-03-16T02:28:22.459Z,36.80
2023-03-16T02:30:51.525Z,36.44
2023-03-16T02:33:19.394Z,36.37
2023-03-16T02:35:47.130Z,36.87
2023-03-16T02:38:14.856Z,37.40
2023-03-16T02:40:54.104Z,36.35
2023-03-16T02:43:22.077Z,36.60
2023-03-16T02:46:03.379Z,37.67
2023-03-16T02:48:32.707Z,37.73
2023-03-16T02:51:00.732Z,36.82
2023-03-16T02:53:28.735Z,37.70
2023-03-16T02:55:58.763Z,37.35
2023-03-16T02:58:26.646Z,37.45
2023-03-16T03:00:54.229Z,37.57
2023-03-16T03:03:23.271Z,37.96
2023-03-16T03:05:50.998Z,37.51
2023-03-16T03:08:20.334Z,37.85
2023-03-16T03:10:48.360Z,38.56
2023-03-16T03:13:16.280Z,38.74
2023-03-16T03:15:44.000Z,39.00
2023-03-16T03:18:12.429Z,38.73
2023-03-16T03:20:42.253Z,38.34
2023-03-16T03:23:11.017Z,38.23
2023-03-16T03:25:38.703Z,37.95
2023-03-16T03:28:06.707Z,37.53
2023-03-16T03:30:34.394Z,38.37
2023-03-16T03:33:02.675Z,38.56
2023-03-16T03:35:30.710Z,38.66
2023-03-16T03:37:59.835Z,39.12
2023-03-16T03:40:27.754Z,38.27
2023-03-16T03:42:59.188Z,38.77
2023-03-16T03:45:27.988Z,39.99
2023-03-16T03:47:56.225Z,39.63
2023-03-16T03:50:24.426Z,39.31
2023-03-16T03:53:01.236Z,39.51
2023-03-16T03:55:32.122Z,39.31
2023-03-16T03:57:59.725Z,39.02
2023-03-16T04:00:27.642Z,39.56
2023-03-16T04:02:55.617Z,40.42
2023-03-16T04:05:30.426Z,39.07
2023-03-16T04:07:58.068Z,40.30
2023-03-16T04:10:27.837Z,41.12
2023-03-16T04:12:56.699Z,39.00
2023-03-16T04:15:24.585Z,39.21
2023-03-16T04:18:12.868Z,38.78
2023-03-16T04:20:41.649Z,39.02
2023-03-16T04:23:10.136Z,39.12
2023-03-16T04:25:42.216Z,38.12
2023-03-16T04:28:10.877Z,37.54
2023-03-16T04:30:42.911Z,37.76
2023-03-16T04:33:25.980Z,38.52
2023-03-16T04:35:53.818Z,37.36
2023-03-16T04:38:23.200Z,36.82
2023-03-16T04:40:56.603Z,37.38
2023-03-16T04:43:28.046Z,37.02
2023-03-16T04:46:01.313Z,37.11
2023-03-16T04:48:32.211Z,37.31
2023-03-16T04:51:01.457Z,37.36
2023-03-16T04:53:31.813Z,38.08
2023-03-16T04:56:04.938Z,38.36
2023-03-16T04:58:32.963Z,38.51
2023-03-16T05:01:02.590Z,37.53
2023-03-16T05:03:32.546Z,37.69
2023-03-16T05:06:01.007Z,38.21
2023-03-16T05:08:31.499Z,37.39
2023-03-16T05:10:59.315Z,38.34
2023-03-16T05:13:32.006Z,38.04
2023-03-16T05:16:01.772Z,39.01
2023-03-16T05:18:33.845Z,38.07
2023-03-16T05:21:01.589Z,37.65
2023-03-16T05:23:40.344Z,38.07
2023-03-16T05:26:09.755Z,39.03
2023-03-16T05:28:42.524Z,37.86
2023-03-16T05:31:12.937Z,39.34
2023-03-16T05:33:45.340Z,39.30
2023-03-16T05:36:18.496Z,38.09
2023-03-16T05:38:49.458Z,38.21
2023-03-16T05:41:36.373Z,38.18
2023-03-16T05:44:10.493Z,38.43
2023-03-16T05:47:01.376Z,37.84
2023-03-16T05:49:31.323Z,38.23
2023-03-16T05:52:01.066Z,37.26
2023-03-16T05:54:30.032Z,38.43
2023-03-16T05:56:57.715Z,37.08
2023-03-16T05:59:27.045Z,37.02
2023-03-16T06:01:57.536Z,36.38
2023-03-16T06:04:25.329Z,41.68
2023-03-16T06:07:00.022Z,37.06
2023-03-16T06:09:29.541Z,36.54
2023-03-16T06:11:57.176Z,36.99
2023-03-16T06:14:24.876Z,36.91
2023-03-16T06:16:56.308Z,37.09
2023-03-16T06:19:23.999Z,37.26
2023-03-16T06:21:57.418Z,37.59
2023-03-16T06:24:25.158Z,37.44
2023-03-16T06:26:53.119Z,36.40
2023-03-16T06:29:23.668Z,36.62
2023-03-16T06:31:55.385Z,36.64
2023-03-16T06:34:25.577Z,36.24
2023-03-16T06:36:53.748Z,36.20
2023-03-16T06:39:21.417Z,35.28
2023-03-16T06:41:51.330Z,35.59
2023-03-16T06:44:19.095Z,35.78
2023-03-16T06:46:56.975Z,35.42
2023-03-16T06:49:26.167Z,35.43
2023-03-16T06:51:54.082Z,36.81
2023-03-16T06:54:22.314Z,38.87
2023-03-16T06:56:50.043Z,38.13
2023-03-16T06:59:17.715Z,35.45
2023-03-16T07:01:45.431Z,33.72
2023-03-16T07:04:16.610Z,34.00
2023-03-16T07:06:45.933Z,33.90
2023-03-16T07:09:13.677Z,33.75
2023-03-16T07:11:42.586Z,33.53
2023-03-16T07:14:11.008Z,33.95
2023-03-16T07:16:38.808Z,33.80
2023-03-16T07:19:08.205Z,33.22
2023-03-16T07:21:39.924Z,32.77
2023-03-16T07:24:13.127Z,33.20
2023-03-16T07:26:42.485Z,32.03
2023-03-16T07:29:12.408Z,31.26
2023-03-16T07:31:40.360Z,32.88
2023-03-16T07:34:13.532Z,31.60
2023-03-16T07:36:48.640Z,30.97
2023-03-16T07:39:18.317Z,31.75
2023-03-16T07:41:47.746Z,33.68
2023-03-16T07:44:18.258Z,32.22
2023-03-16T07:46:49.287Z,32.18
2023-03-16T07:49:17.714Z,30.27
2023-03-16T07:51:47.032Z,30.71
2023-03-16T07:54:16.166Z,30.34
2023-03-16T07:56:49.247Z,30.99
2023-03-16T07:59:32.587Z,30.36
2023-03-16T08:02:01.409Z,30.66
2023-03-16T08:04:29.393Z,31.81
2023-03-16T08:07:00.336Z,31.87
2023-03-16T08:09:35.876Z,30.81
2023-03-16T08:12:07.778Z,30.62
2023-03-16T08:14:37.473Z,31.22
2023-03-16T08:17:22.307Z,29.97
2023-03-16T08:19:50.834Z,31.40
2023-03-16T08:22:20.998Z,30.51
2023-03-16T08:24:50.513Z,31.00
2023-03-16T08:27:20.627Z,30.13
2023-03-16T08:29:53.084Z,30.40
2023-03-16T08:32:22.295Z,30.01
2023-03-16T08:34:52.640Z,29.45
2023-03-16T08:37:20.683Z,31.54
2023-03-16T08:39:51.438Z,29.56
2023-03-16T08:42:21.114Z,28.61
2023-03-16T08:45:02.317Z,29.50
2023-03-16T08:47:40.340Z,29.33
2023-03-16T08:50:10.238Z,29.23
2023-03-16T08:52:43.945Z,29.37
2023-03-16T08:55:13.181Z,30.42
2023-03-16T08:57:45.019Z,32.87
2023-03-16T09:00:14.529Z,31.73
2023-03-16T09:02:42.331Z,29.08
2023-03-16T09:05:11.120Z,30.45
2023-03-16T09:07:39.267Z,31.79
2023-03-16T09:10:07.207Z,30.50
2023-03-16T09:12:36.420Z,32.37
2023-03-16T09:15:05.861Z,31.51
2023-03-16T09:17:34.706Z,30.26
2023-03-16T09:20:15.436Z,28.95
2023-03-16T09:22:49.126Z,29.58
2023-03-16T09:25:16.940Z,32.53
2023-03-16T09:27:44.619Z,30.21
2023-03-16T09:30:14.237Z,29.44
2023-03-16T09:32:42.025Z,28.97
2023-03-16T09:35:09.847Z,29.02
2023-03-16T09:37:44.920Z,29.11
2023-03-16T09:40:16.238Z,28.80
2023-03-16T09:42:45.364Z,28.73
2023-03-16T09:45:17.168Z,28.11
2023-03-16T09:47:45.351Z,27.19
2023-03-16T09:50:16.503Z,29.11
2023-03-16T09:52:44.822Z,27.42
2023-03-16T09:55:48.792Z,28.04
2023-03-16T09:58:34.969Z,27.23
2023-03-16T10:01:24.453Z,28.11
2023-03-16T10:04:10.983Z,28.58
2023-03-16T10:07:02.521Z,27.48
2023-03-16T10:12:17.568Z,28.66
2023-03-16T10:14:46.811Z,27.61
2023-03-16T10:17:16.979Z,26.26
2023-03-16T10:19:45.418Z,27.24
2023-03-16T10:22:16.093Z,26.78
2023-03-16T10:24:44.934Z,26.35
2023-03-16T10:27:15.647Z,25.51
2023-03-16T10:29:43.332Z,25.23
2023-03-16T10:32:13.668Z,25.48
2023-03-16T10:34:42.918Z,25.00
2023-03-16T10:37:11.390Z,25.35
2023-03-16T10:39:43.172Z,25.35
2023-03-16T10:42:15.558Z,24.36
2023-03-16T10:44:43.405Z,25.78
2023-03-16T10:47:15.058Z,26.62
2023-03-16T10:49:48.907Z,25.74
2023-03-16T10:52:17.783Z,25.83
2023-03-16T10:54:49.597Z,26.22
2023-03-16T10:57:22.649Z,22.54
2023-03-16T10:59:50.557Z,23.38
2023-03-16T11:02:19.478Z,25.05
2023-03-16T11:04:49.418Z,23.55
2023-03-16T11:07:17.446Z,22.32
2023-03-16T11:09:45.014Z,25.28
2023-03-16T11:12:17.254Z,22.96
2023-03-16T11:14:45.536Z,21.55
2023-03-16T11:17:14.379Z,22.94
2023-03-16T11:19:42.669Z,22.99
2023-03-16T11:22:13.194Z,23.33
2023-03-16T11:24:42.814Z,23.53
2023-03-16T11:27:13.669Z,22.06
2023-03-16T11:29:45.112Z,21.75
2023-03-16T11:32:15.397Z,23.25
2023-03-16T11:34:46.620Z,23.50
2023-03-16T11:37:17.419Z,23.40
2023-03-16T11:39:46.328Z,22.55
2023-03-16T11:42:24.045Z,22.21
2023-03-16T11:44:52.720Z,21.36
2023-03-16T11:47:27.427Z,22.45
2023-03-16T11:49:56.957Z,22.02
2023-03-16T11:52:30.166Z,23.27
2023-03-16T11:55:10.428Z,21.17
2023-03-16T11:57:41.590Z,20.75
2023-03-16T12:00:16.473Z,21.73
2023-03-16T12:02:48.785Z,24.04
2023-03-16T12:05:32.673Z,21.48
2023-03-16T12:08:04.988Z,19.32
2023-03-16T12:10:33.918Z,20.45
2023-03-16T12:13:04.373Z,21.92
2023-03-16T12:15:33.547Z,19.69
2023-03-16T12:18:02.825Z,21.51
2023-03-16T12:20:31.665Z,21.08
2023-03-16T12:23:00.014Z,20.33
2023-03-16T12:25:31.106Z,22.24
2023-03-16T12:28:00.378Z,24.67
2023-03-16T12:30:31.094Z,22.83
2023-03-16T12:33:00.771Z,21.31
2023-03-16T12:35:30.303Z,20.45
2023-03-16T12:38:15.239Z,21.85
2023-03-16T12:40:46.577Z,21.22
2023-03-16T12:43:18.978Z,20.63
2023-03-16T12:45:47.980Z,19.84
2023-03-16T12:48:17.366Z,17.26
2023-03-16T12:50:49.499Z,17.82
2023-03-16T12:53:26.489Z,17.70
2023-03-16T12:55:56.613Z,20.05
2023-03-16T12:58:24.296Z,19.67
2023-03-16T13:00:56.879Z,18.74
2023-03-16T13:03:25.596Z,17.39
2023-03-16T13:05:54.532Z,20.55
2023-03-16T13:08:22.772Z,20.10
2023-03-16T13:11:05.007Z,20.65
2023-03-16T13:13:32.807Z,20.68
2023-03-16T13:16:05.787Z,19.69
2023-03-16T13:18:38.605Z,19.80
2023-03-16T13:21:17.669Z,19.27
2023-03-16T13:23:54.421Z,18.96
2023-03-16T13:26:27.107Z,19.20
2023-03-16T13:28:55.354Z,19.29
2023-03-16T13:31:25.291Z,21.55
2023-03-16T13:33:53.599Z,20.32
2023-03-16T13:36:21.207Z,19.83
2023-03-16T13:38:56.292Z,19.53
2023-03-16T13:41:25.880Z,18.92
2023-03-16T13:43:53.558Z,19.40
2023-03-16T13:46:22.352Z,19.43
2023-03-16T13:48:50.303Z,20.13
2023-03-16T13:51:18.510Z,18.42
2023-03-16T13:53:46.141Z,19.58
2023-03-16T13:56:14.316Z,18.41
2023-03-16T13:58:44.590Z,19.11
2023-03-16T14:01:14.371Z,18.72
2023-03-16T14:03:42.716Z,19.16
2023-03-16T14:06:19.870Z,19.18
2023-03-16T14:08:48.361Z,18.15
2023-03-16T14:11:16.068Z,19.20
2023-03-16T14:13:51.020Z,19.52
2023-03-16T14:16:19.852Z,18.05
2023-03-16T14:18:48.418Z,18.98
2023-03-16T14:21:17.684Z,18.86
2023-03-16T14:23:45.722Z,18.17
2023-03-16T14:26:13.898Z,17.80
2023-03-16T14:28:42.479Z,18.29
2023-03-16T14:31:12.767Z,19.00
2023-03-16T14:33:41.923Z,19.17
2023-03-16T14:36:12.946Z,19.10
2023-03-16T14:38:41.686Z,19.27
2023-03-16T14:41:15.505Z,18.06
2023-03-16T14:43:46.348Z,18.43
2023-03-16T14:46:16.902Z,18.92
2023-03-16T14:48:45.728Z,17.80
2023-03-16T14:51:14.223Z,17.57
2023-03-16T14:53:41.967Z,18.10
2023-03-16T14:56:10.848Z,18.04
2023-03-16T14:58:38.468Z,18.95
2023-03-16T15:01:06.312Z,18.29
2023-03-16T15:03:36.238Z,18.23
2023-03-16T15:06:03.909Z,17.95
2023-03-16T15:08:32.792Z,18.25
2023-03-16T15:11:00.978Z,17.25
2023-03-16T15:13:53.158Z,17.13
2023-03-16T15:16:21.748Z,17.67
2023-03-16T15:18:51.859Z,17.55
2023-03-16T15:21:20.641Z,17.79
2023-03-16T15:23:48.300Z,17.77
2023-03-16T15:26:16.510Z,17.44
2023-03-16T15:28:44.264Z,17.87
2023-03-16T15:31:13.191Z,17.01
2023-03-16T15:33:41.203Z,17.28
2023-03-16T15:36:12.921Z,18.15
2023-03-16T15:38:40.779Z,17.66
2023-03-16T15:41:09.634Z,18.75
2023-03-16T15:43:37.248Z,18.07
2023-03-16T15:46:05.100Z,19.28
2023-03-16T15:48:34.793Z,19.41
2023-03-16T15:51:03.212Z,18.53
2023-03-16T15:53:35.585Z,19.45
2023-03-16T15:56:04.242Z,20.28
2023-03-16T15:58:32.548Z,18.52
2023-03-16T16:01:00.619Z,20.68
2023-03-16T16:03:28.481Z,19.20
2023-03-16T16:05:56.399Z,19.50
2023-03-16T16:08:24.164Z,18.97
2023-03-16T16:10:53.619Z,22.32
2023-03-16T16:13:23.388Z,22.12
2023-03-16T16:15:54.333Z,22.74
2023-03-16T16:18:32.214Z,20.88
2023-03-16T16:21:01.341Z,22.24
2023-03-16T16:23:29.368Z,21.75
2023-03-16T16:25:59.577Z,24.08
2023-03-16T16:28:28.027Z,25.07
2023-03-16T16:30:55.906Z,23.19
2023-03-16T16:33:24.586Z,24.13
2023-03-16T16:35:52.357Z,23.87
2023-03-16T16:38:20.000Z,24.06
2023-03-16T16:40:47.651Z,23.20
2023-03-16T16:43:21.790Z,26.26
2023-03-16T16:45:49.801Z,25.28
2023-03-16T16:48:23.385Z,26.36
2023-03-16T16:50:51.581Z,24.05
2023-03-16T16:53:19.941Z,23.11
2023-03-16T16:55:48.480Z,25.32
2023-03-16T16:58:24.211Z,23.98
2023-03-16T17:00:54.864Z,25.12
2023-03-16T17:03:24.082Z,27.91
2023-03-16T17:05:52.277Z,24.77
2023-03-16T17:08:20.405Z,23.63
2023-03-16T17:10:48.030Z,23.13
2023-03-16T17:13:23.210Z,23.32
2023-03-16T17:15:50.972Z,23.07
2023-03-16T17:18:20.586Z,22.62
2023-03-16T17:20:48.575Z,22.85
2023-03-16T17:23:22.715Z,23.34
2023-03-16T17:25:50.655Z,23.41
2023-03-16T17:28:18.514Z,23.52
2023-03-16T17:30:47.854Z,22.72
2023-03-16T17:33:15.858Z,22.66
2023-03-16T17:35:45.738Z,22.99
2023-03-16T17:38:17.746Z,23.07
2023-03-16T17:40:45.697Z,22.86
2023-03-16T17:43:14.396Z,23.21
2023-03-16T17:45:42.184Z,23.07
2023-03-16T17:48:13.623Z,23.33
2023-03-16T17:50:41.460Z,22.29
2023-03-16T17:53:10.434Z,22.74
2023-03-16T17:55:38.717Z,22.83
2023-03-16T17:58:06.497Z,22.63
2023-03-16T18:00:34.963Z,22.05
2023-03-16T18:03:03.007Z,21.76
2023-03-16T18:05:31.442Z,20.87
2023-03-16T18:07:59.929Z,22.01
2023-03-16T18:10:30.129Z,22.19
2023-03-16T18:12:59.499Z,23.84
2023-03-16T18:15:29.238Z,23.34
2023-03-16T18:17:56.931Z,22.41
2023-03-16T18:20:27.624Z,24.05
2023-03-16T18:22:56.143Z,24.29
2023-03-16T18:25:32.353Z,23.76
2023-03-16T18:28:00.221Z,23.86
2023-03-16T18:30:28.417Z,24.33
2023-03-16T18:32:56.547Z,24.41
2023-03-16T18:35:24.368Z,24.11
2023-03-16T18:37:53.229Z,24.35
2023-03-16T18:40:20.921Z,24.24
2023-03-16T18:42:49.998Z,24.35
2023-03-16T18:45:17.756Z,24.55
2023-03-16T18:47:47.634Z,23.81
2023-03-16T18:50:19.601Z,24.21
2023-03-16T18:52:49.336Z,23.35
2023-03-16T18:55:18.461Z,23.89
2023-03-16T18:57:50.206Z,23.54
2023-03-16T19:00:20.343Z,23.81
2023-03-16T19:02:48.520Z,24.33
2023-03-16T19:05:19.829Z,24.33
2023-03-16T19:07:48.720Z,24.74
2023-03-16T19:10:22.075Z,24.17
2023-03-16T19:12:49.809Z,24.27
2023-03-16T19:15:20.441Z,24.53
2023-03-16T19:17:48.595Z,24.48
2023-03-16T19:20:17.452Z,25.99
2023-03-16T19:22:46.007Z,25.41
2023-03-16T19:25:20.993Z,25.68
2023-03-16T19:27:48.643Z,26.70
2023-03-16T19:30:21.344Z,25.71
2023-03-16T19:32:49.115Z,25.28
2023-03-16T19:35:17.489Z,25.87
2023-03-16T19:37:45.209Z,24.36
2023-03-16T19:40:16.322Z,26.36
2023-03-16T19:42:43.951Z,25.60
2023-03-16T19:45:17.354Z,25.25
2023-03-16T19:47:46.872Z,25.16
2023-03-16T19:50:15.766Z,25.27
2023-03-16T19:52:43.385Z,25.16
2023-03-16T19:55:14.616Z,24.91
2023-03-16T19:57:42.391Z,26.01
2023-03-16T20:00:15.564Z,26.12
2023-03-16T20:02:43.252Z,26.86
2023-03-16T20:05:15.898Z,27.40
2023-03-16T20:07:43.519Z,28.58
2023-03-16T20:10:12.387Z,27.86
2023-03-16T20:12:40.310Z,27.49
2023-03-16T20:15:10.546Z,27.12
2023-03-16T20:17:38.287Z,27.00
2023-03-16T20:20:07.599Z,27.92
2023-03-16T20:22:36.721Z,27.28
2023-03-16T20:25:05.302Z,27.54
2023-03-16T20:27:32.968Z,27.80
2023-03-16T20:30:00.601Z,27.30
2023-03-16T20:32:29.744Z,27.64
2023-03-16T20:34:58.105Z,26.74
2023-03-16T20:37:26.497Z,27.18
2023-03-16T20:39:56.567Z,27.77
2023-03-16T20:42:24.713Z,28.38
2023-03-16T20:44:52.725Z,27.62
2023-03-16T20:47:20.938Z,27.46
2023-03-16T20:49:48.749Z,28.58
2023-03-16T20:52:16.845Z,28.32
2023-03-16T20:54:44.599Z,28.20
2023-03-16T20:57:15.696Z,28.49
2023-03-16T20:59:44.024Z,28.15
2023-03-16T21:02:20.901Z,28.62
2023-03-16T21:04:48.784Z,30.92
2023-03-16T21:07:16.558Z,28.90
2023-03-16T21:09:50.116Z,28.68
2023-03-16T21:12:23.302Z,29.84
2023-03-16T21:14:51.584Z,30.77
2023-03-16T21:17:26.463Z,30.72
2023-03-16T21:19:54.495Z,29.64
2023-03-16T21:22:24.022Z,31.00
2023-03-16T21:24:52.141Z,30.74
2023-03-16T21:27:20.928Z,30.44
2023-03-16T21:29:49.914Z,30.93
2023-03-16T21:32:19.538Z,30.87
2023-03-16T21:34:47.321Z,31.13
2023-03-16T21:37:15.274Z,30.75
2023-03-16T21:39:42.942Z,32.80
2023-03-16T21:42:11.059Z,31.99
2023-03-16T21:44:39.045Z,31.50
2023-03-16T21:47:10.999Z,31.59
2023-03-16T21:49:39.451Z,31.23
2023-03-16T21:52:10.464Z,32.05
2023-03-16T21:54:38.199Z,31.91
2023-03-16T21:57:06.850Z,31.98
2023-03-16T21:59:34.491Z,32.88
2023-03-16T22:02:02.670Z,33.39
2023-03-16T22:04:31.752Z,32.88
2023-03-16T22:06:59.367Z,33.41
2023-03-16T22:09:30.025Z,33.72
2023-03-16T22:11:57.918Z,32.97
2023-03-16T22:14:27.092Z,32.64
2023-03-16T22:16:54.735Z,31.76
2023-03-16T22:19:22.379Z,31.83
2023-03-16T22:21:51.429Z,32.32
2023-03-16T22:24:19.466Z,33.73
2023-03-16T22:26:47.689Z,33.88
2023-03-16T22:29:19.283Z,34.78
2023-03-16T22:31:47.816Z,34.68
2023-03-16T22:34:17.915Z,34.70
2023-03-16T22:36:45.536Z,34.21
2023-03-16T22:39:15.115Z,33.55
2023-03-16T22:41:42.758Z,33.04
2023-03-16T22:44:11.967Z,33.79
2023-03-16T22:46:39.564Z,33.66
2023-03-16T22:49:08.140Z,34.44
2023-03-16T22:51:36.649Z,34.07
2023-03-16T22:54:04.813Z,34.26
2023-03-16T22:56:33.973Z,33.55
2023-03-16T22:59:01.860Z,34.53
2023-03-16T23:01:30.821Z,33.92
2023-03-16T23:03:58.442Z,34.24
2023-03-16T23:06:27.341Z,34.18
2023-03-16T23:08:55.372Z,33.88
2023-03-16T23:11:23.570Z,33.70
2023-03-16T23:13:53.440Z,34.37
2023-03-16T23:16:22.163Z,35.31
2023-03-16T23:18:50.062Z,35.22
2023-03-16T23:21:18.526Z,33.99
2023-03-16T23:23:57.086Z,34.17
2023-03-16T23:26:30.167Z,35.83
2023-03-16T23:28:59.799Z,34.84
2023-03-16T23:31:27.783Z,35.63
2023-03-16T23:33:55.541Z,34.64
2023-03-16T23:36:24.357Z,35.39
2023-03-16T23:38:52.029Z,35.72
2023-03-16T23:41:21.006Z,35.18
2023-03-16T23:43:48.666Z,35.27
2023-03-16T23:46:17.873Z,35.62
2023-03-16T23:48:45.844Z,35.32
2023-03-16T23:51:16.184Z,36.19
2023-03-16T23:53:43.798Z,37.07
2023-03-16T23:56:11.589Z,37.07
2023-03-16T23:58:39.201Z,35.81
